Terminal Aerodrome Forecast
Issued by NWS

Home | Current Version | Previous Version | Text Only | Print | Product List | Glossary Off
Versions: 1 2 3 4 5 6 7 8 9 10 11 12 13 14 15 16 17

000
FTUS43 KFGF 251400 AAA
TAFBJI
TAF AMD
KBJI 251406Z 2514/2612 17008KT 5SM -SN BKN006
     FM251530 25007KT 2SM -SN OVC009
     FM251800 30023G30KT 5SM -SN BKN007
     FM252300 32018G25KT P6SM BKN015
     FM260800 31010KT P6SM BKN025=

USA.gov is the U.S. government's official web portal to all federal, state and local government web resources and services.